Time;durP1;ratioP1;P1;durP2;ratioP2;P2;SDS_P1;SDS_P2;PMS_P1;PMS_P2;Temp;Humidity;BMP_temperature;BMP_pressure;BME280_temperature;BME280_humidity;BME280_pressure;Samples;Min_cycle;Max_cycle;Signal;HPM_P1;HPM_P2
2022/11/14 00:00:54;;;;;;;0.60;0.60;;;6.70;99.90;7.20;101201.00;;;;5091066;27;20231;-87
2022/11/14 00:03:54;;;;;;;0.50;0.50;;;6.70;99.90;7.50;101206.00;;;;5098102;28;20237;-88
2022/11/14 00:06:42;;;;;;;0.57;0.57;;;6.70;99.90;7.30;101209.00;;;;5091136;27;20188;-88
2022/11/14 00:09:37;;;;;;;0.57;0.57;;;6.70;99.90;7.30;101217.00;;;;5097010;27;20230;-87
2022/11/14 00:12:49;;;;;;;0.50;0.50;;;6.60;99.90;7.20;101202.00;;;;5123481;27;20250;-90
2022/11/14 00:15:39;;;;;;;0.60;0.60;;;6.60;99.90;6.80;101189.00;;;;5090681;27;20268;-90
2022/11/14 00:18:25;;;;;;;0.50;0.50;;;6.50;99.90;7.00;101196.00;;;;5105533;27;20201;-90
2022/11/14 00:21:13;;;;;;;10.13;6.67;;;6.40;99.90;6.60;101212.00;;;;5088675;28;20231;-89
2022/11/14 00:24:10;;;;;;;1.07;1.07;;;6.20;99.90;7.10;101185.00;;;;5102070;27;20272;-88
2022/11/14 00:27:00;;;;;;;0.50;0.50;;;6.30;99.90;7.00;101187.00;;;;5100875;27;20187;-89
2022/11/14 00:29:55;;;;;;;0.50;0.50;;;6.40;99.90;6.90;101094.00;;;;5112054;28;20276;-88
2022/11/14 00:32:45;;;;;;;0.40;0.40;;;6.30;99.90;7.20;101106.00;;;;5087357;27;20200;-88
2022/11/14 00:38:58;;;;;;;0.50;0.50;;;6.50;99.90;7.70;101156.00;;;;5095412;27;20215;-89
2022/11/14 00:41:34;;;;;;;1.53;1.43;;;6.60;99.90;7.90;101115.00;;;;5084845;28;20201;-89
2022/11/14 00:44:18;;;;;;;0.60;0.60;;;6.90;99.90;7.30;101134.00;;;;5103918;28;20192;-87
2022/11/14 00:47:27;;;;;;;0.70;0.70;;;6.70;99.90;7.30;101080.00;;;;5086978;27;20646;-87
2022/11/14 00:50:36;;;;;;;0.70;0.70;;;6.50;99.90;7.20;101172.00;;;;5103268;27;20353;-86
2022/11/14 00:53:22;;;;;;;0.50;0.50;;;6.60;99.90;7.10;101091.00;;;;5093125;27;20188;-86
2022/11/14 00:56:16;;;;;;;0.47;0.47;;;6.40;99.90;6.70;101132.00;;;;5092491;28;20189;-87
2022/11/14 00:59:11;;;;;;;0.50;0.50;;;6.20;99.90;6.80;101131.00;;;;5096848;27;20915;-87
2022/11/14 01:02:14;;;;;;;0.50;0.50;;;6.10;99.90;7.00;101137.00;;;;5100424;28;20671;-91
2022/11/14 01:05:34;;;;;;;0.70;0.70;;;6.20;99.90;6.80;101120.00;;;;5090403;28;20644;-90
2022/11/14 01:08:05;;;;;;;0.60;0.60;;;6.10;99.90;6.90;101103.00;;;;5108994;28;20652;-90
2022/11/14 01:10:41;;;;;;;0.60;0.60;;;6.10;99.90;7.00;101092.00;;;;5100550;27;20175;-91
2022/11/14 01:13:36;;;;;;;5.13;4.93;;;6.20;99.90;7.60;101141.00;;;;5092373;28;20180;-88
2022/11/14 01:16:48;;;;;;;0.77;0.77;;;6.50;99.90;6.80;101116.00;;;;5084083;28;20186;-88
2022/11/14 01:19:28;;;;;;;1.20;1.20;;;6.40;99.90;7.10;101124.00;;;;5100984;27;20187;-88
2022/11/14 01:22:04;;;;;;;0.50;0.50;;;6.30;99.90;7.00;101121.00;;;;5100221;27;20201;-88
2022/11/14 01:24:57;;;;;;;3.13;3.03;;;6.30;99.90;7.20;101095.00;;;;5105825;27;20189;-88
2022/11/14 01:27:33;;;;;;;0.60;0.60;;;6.30;99.90;7.40;101095.00;;;;5114769;28;20186;-88
2022/11/14 01:30:09;;;;;;;0.50;0.50;;;6.50;99.90;7.30;101053.00;;;;5107154;27;20213;-89
2022/11/14 01:32:43;;;;;;;0.70;0.70;;;6.50;99.90;7.30;101131.00;;;;5092951;28;20676;-89
2022/11/14 01:35:26;;;;;;;1.00;1.00;;;6.50;99.90;6.90;101100.00;;;;5099513;27;20229;-88
2022/11/14 01:37:55;;;;;;;2.50;2.40;;;6.30;99.90;6.70;101096.00;;;;5088686;28;20183;-91
2022/11/14 01:40:26;;;;;;;0.83;0.83;;;6.30;99.90;6.40;100972.00;;;;5079772;28;20179;-90
2022/11/14 01:43:16;;;;;;;2.30;2.20;;;6.10;99.90;6.60;101118.00;;;;5106815;28;20210;-91
2022/11/14 01:45:52;;;;;;;0.50;0.50;;;6.00;99.90;7.00;101054.00;;;;5115508;27;20208;-91
2022/11/14 01:48:39;;;;;;;1.33;1.33;;;6.20;99.90;7.00;101125.00;;;;5097101;28;20209;-91
2022/11/14 01:51:33;;;;;;;2.30;2.20;;;6.30;99.90;7.10;101115.00;;;;5124766;27;20259;-92
2022/11/14 01:54:15;;;;;;;0.50;0.50;;;6.30;99.90;7.50;101018.00;;;;5106952;28;20216;-92
2022/11/14 01:56:58;;;;;;;0.50;0.50;;;6.40;99.90;7.30;101074.00;;;;5109093;27;20327;-92
2022/11/14 01:59:45;;;;;;;0.53;0.53;;;6.40;99.90;7.10;101087.00;;;;5080382;28;20180;-92
2022/11/14 02:02:26;;;;;;;0.50;0.50;;;6.30;99.90;7.50;101038.00;;;;5089337;28;20200;-84
2022/11/14 02:05:21;;;;;;;0.50;0.50;;;6.50;99.90;7.40;101050.00;;;;5084295;28;20241;-83
2022/11/14 02:07:55;;;;;;;0.50;0.50;;;6.50;99.90;7.20;101082.00;;;;5089874;28;20182;-83
2022/11/14 02:10:34;;;;;;;1.03;1.03;;;6.40;99.90;7.10;101096.00;;;;5095056;28;20193;-84
2022/11/14 02:13:09;;;;;;;0.60;0.60;;;6.30;99.90;7.10;101081.00;;;;5106196;27;20183;-84
2022/11/14 02:15:44;;;;;;;0.60;0.60;;;6.30;99.90;7.30;101055.00;;;;5087605;28;20648;-84
2022/11/14 02:18:18;;;;;;;0.60;0.60;;;6.30;99.90;7.20;101013.00;;;;5109566;28;20182;-84
2022/11/14 02:20:49;;;;;;;0.60;0.60;;;6.30;99.90;6.60;100861.00;;;;5079705;28;20180;-85
2022/11/14 02:23:28;;;;;;;0.60;0.60;;;6.10;99.90;7.20;101084.00;;;;5113842;28;20240;-83
2022/11/14 02:25:59;;;;;;;0.70;0.70;;;6.20;99.90;6.70;101066.00;;;;5111426;28;20539;-83
2022/11/14 02:28:25;;;;;;;0.60;0.60;;;6.10;99.90;6.70;100997.00;;;;5105967;28;20235;-83
2022/11/14 02:31:03;;;;;;;0.50;0.50;;;6.00;99.90;7.20;101072.00;;;;5085813;28;20177;-87
2022/11/14 02:33:32;;;;;;;0.50;0.50;;;6.20;99.90;7.30;101023.00;;;;5101792;28;20193;-87
2022/11/14 02:36:04;;;;;;;0.60;0.60;;;6.30;99.90;6.90;101032.00;;;;5107598;28;20174;-87
2022/11/14 02:38:38;;;;;;;0.50;0.50;;;6.10;99.90;6.10;101071.00;;;;5092369;28;20186;-87
2022/11/14 02:41:10;;;;;;;5.73;4.97;;;5.90;99.90;5.80;101012.00;;;;5101496;28;20181;-92
2022/11/14 02:43:47;;;;;;;0.50;0.50;;;5.50;99.90;6.20;101065.00;;;;5098648;28;20271;-91
2022/11/14 02:46:26;;;;;;;0.93;0.93;;;5.50;99.90;6.20;100983.00;;;;5084196;28;20189;-90
2022/11/14 02:48:58;;;;;;;0.60;0.60;;;5.50;99.90;6.50;101004.00;;;;5112928;28;20661;-90
2022/11/14 02:51:35;;;;;;;0.50;0.50;;;5.60;99.90;6.70;101020.00;;;;5109055;28;20712;-90
2022/11/14 02:54:15;;;;;;;0.53;0.53;;;5.70;99.90;6.70;100980.00;;;;5084840;28;20193;-91
2022/11/14 02:56:55;;;;;;;0.93;0.93;;;5.80;99.90;6.90;101051.00;;;;5108435;28;20197;-89
2022/11/14 02:59:27;;;;;;;0.80;0.80;;;5.90;99.90;6.90;101039.00;;;;5098516;28;20201;-91
2022/11/14 03:02:21;;;;;;;1.47;1.43;;;6.00;99.90;6.50;101055.00;;;;5123201;28;20209;-91
2022/11/14 03:05:07;;;;;;;1.50;1.50;;;6.00;99.90;6.70;101059.00;;;;5090931;28;20221;-91
2022/11/14 03:07:41;;;;;;;0.50;0.50;;;5.90;99.90;6.60;101041.00;;;;5104359;28;20563;-89
2022/11/14 03:10:13;;;;;;;0.50;0.50;;;5.80;99.90;6.60;101018.00;;;;5103385;28;20182;-90
2022/11/14 03:12:45;;;;;;;0.50;0.50;;;5.80;99.90;6.90;101037.00;;;;5106586;28;20638;-90
2022/11/14 03:15:23;;;;;;;0.70;0.70;;;5.80;99.90;7.10;101041.00;;;;5091198;28;20188;-89
2022/11/14 03:17:55;;;;;;;0.70;0.70;;;6.10;99.90;6.90;101002.00;;;;5089574;28;20591;-82
2022/11/14 03:20:29;;;;;;;0.60;0.60;;;6.10;99.90;6.90;101016.00;;;;5096018;27;20183;-83
2022/11/14 03:23:16;;;;;;;0.50;0.50;;;6.00;99.90;6.90;100984.00;;;;5111133;27;20208;-91
2022/11/14 03:26:02;;;;;;;0.70;0.70;;;6.00;99.90;6.70;101033.00;;;;5109997;27;20226;-89
2022/11/14 03:28:38;;;;;;;0.50;0.50;;;6.00;99.90;6.70;100998.00;;;;5118832;27;20176;-89
2022/11/14 03:31:05;;;;;;;1.20;1.20;;;5.90;99.90;6.90;101008.00;;;;5105632;27;20181;-91
2022/11/14 03:33:37;;;;;;;0.50;0.50;;;5.90;99.90;6.90;101007.00;;;;5090438;27;20276;-91
2022/11/14 03:36:11;;;;;;;0.70;0.70;;;6.00;99.90;5.90;100994.00;;;;5095342;27;20235;-90
2022/11/14 03:38:41;;;;;;;0.50;0.50;;;5.80;99.90;6.30;100989.00;;;;5117468;27;20197;-88
2022/11/14 03:41:09;;;;;;;0.50;0.50;;;5.70;99.90;6.40;100969.00;;;;5099937;27;20185;-84
2022/11/14 03:43:38;;;;;;;0.50;0.50;;;5.60;99.90;6.20;100997.00;;;;5116365;27;20272;-84
2022/11/14 03:46:04;;;;;;;0.50;0.50;;;5.60;99.90;6.50;101034.00;;;;5110320;27;20237;-84
2022/11/14 03:48:32;;;;;;;0.50;0.50;;;5.60;99.90;6.40;100990.00;;;;5132531;27;20194;-84
2022/11/14 03:51:01;;;;;;;1.53;1.53;;;5.60;99.90;6.70;100772.00;;;;5115684;27;20610;-84
2022/11/14 03:53:27;;;;;;;0.60;0.60;;;5.80;99.90;6.70;100988.00;;;;5129822;27;20195;-84
2022/11/14 03:55:56;;;;;;;0.60;0.60;;;5.80;99.90;6.60;100984.00;;;;5097625;28;20233;-84
2022/11/14 03:58:21;;;;;;;0.53;0.53;;;5.80;99.90;6.50;101014.00;;;;5108240;27;20231;-83
2022/11/14 04:00:50;;;;;;;0.60;0.60;;;5.80;99.90;6.40;101002.00;;;;5102844;28;20667;-83
2022/11/14 04:03:19;;;;;;;0.60;0.60;;;5.70;99.90;6.40;100945.00;;;;5099885;28;20201;-83
2022/11/14 04:05:52;;;;;;;0.60;0.60;;;5.70;99.90;6.50;100947.00;;;;5100203;28;20631;-84
2022/11/14 04:08:21;;;;;;;0.60;0.60;;;5.60;99.90;6.40;100965.00;;;;5103217;28;20182;-83
2022/11/14 04:10:49;;;;;;;0.60;0.60;;;5.60;99.90;6.90;100998.00;;;;5107460;28;20199;-84
2022/11/14 04:13:15;;;;;;;0.83;0.83;;;5.80;99.90;6.80;100962.00;;;;5101709;27;20213;-87
2022/11/14 04:15:45;;;;;;;1.63;1.63;;;5.90;99.90;6.30;100918.00;;;;5081073;28;20628;-85
2022/11/14 04:18:20;;;;;;;1.33;1.33;;;5.70;99.90;6.10;100988.00;;;;5108041;27;20183;-84
2022/11/14 04:20:46;;;;;;;0.80;0.80;;;5.40;99.90;6.20;100984.00;;;;5089743;28;20179;-83
2022/11/14 04:23:15;;;;;;;1.40;1.37;;;5.40;99.90;6.10;100978.00;;;;5085043;27;20690;-82
2022/11/14 04:25:44;;;;;;;0.60;0.60;;;5.40;99.90;5.80;101004.00;;;;5127608;27;20187;-88
2022/11/14 04:28:11;;;;;;;0.50;0.50;;;5.30;99.90;5.80;100956.00;;;;5087186;27;20189;-88
2022/11/14 04:30:40;;;;;;;0.60;0.60;;;5.30;99.90;6.10;101005.00;;;;5101192;28;20257;-87
2022/11/14 04:33:06;;;;;;;0.50;0.50;;;5.40;99.90;6.50;101008.00;;;;5084448;27;20200;-88
2022/11/14 04:35:32;;;;;;;0.57;0.57;;;5.50;99.90;6.50;100926.00;;;;5100790;27;20181;-88
2022/11/14 04:38:00;;;;;;;0.50;0.50;;;5.60;99.90;6.10;100982.00;;;;5106321;27;20176;-88
2022/11/14 04:40:27;;;;;;;1.07;1.03;;;5.50;99.90;6.10;100996.00;;;;5093155;27;20193;-88
2022/11/14 04:42:54;;;;;;;0.97;0.97;;;5.50;99.90;6.30;100904.00;;;;5111078;27;20199;-87
2022/11/14 04:45:21;;;;;;;2.50;2.40;;;5.50;99.90;6.20;100945.00;;;;5094147;27;20191;-87
2022/11/14 04:47:51;;;;;;;0.60;0.60;;;5.50;99.90;6.10;100977.00;;;;5114937;27;20179;-89
2022/11/14 04:50:22;;;;;;;0.60;0.60;;;5.40;99.90;5.90;100975.00;;;;5102767;28;20185;-88
2022/11/14 04:52:52;;;;;;;0.60;0.60;;;5.40;99.90;5.90;100977.00;;;;5080860;28;20275;-89
2022/11/14 04:55:18;;;;;;;0.60;0.60;;;5.30;99.90;6.20;100913.00;;;;5106705;28;20188;-89
2022/11/14 04:57:47;;;;;;;0.60;0.60;;;5.30;99.90;6.60;100983.00;;;;5091625;27;20186;-88
2022/11/14 05:00:26;;;;;;;0.70;0.70;;;5.60;99.90;6.80;100992.00;;;;5099827;28;20180;-89
2022/11/14 05:02:52;;;;;;;0.70;0.70;;;5.70;99.90;6.50;100984.00;;;;5092093;27;20200;-89
2022/11/14 05:05:17;;;;;;;0.50;0.50;;;5.70;99.90;6.40;100925.00;;;;5117724;27;20181;-88
2022/11/14 05:07:45;;;;;;;0.50;0.50;;;5.70;99.90;6.40;100875.00;;;;5137291;27;20183;-89
2022/11/14 05:10:14;;;;;;;1.43;1.43;;;5.60;99.90;6.40;100886.00;;;;5089796;27;20286;-89
2022/11/14 05:12:41;;;;;;;0.67;0.67;;;5.60;99.90;6.30;100980.00;;;;5097178;28;20177;-88
2022/11/14 05:15:10;;;;;;;2.30;2.20;;;5.50;99.90;6.30;100952.00;;;;5097116;28;20263;-88
2022/11/14 05:17:39;;;;;;;1.80;1.67;;;5.60;99.90;6.20;100980.00;;;;5098277;28;20216;-88
2022/11/14 05:20:06;;;;;;;0.50;0.50;;;5.50;99.90;6.20;100931.00;;;;5080178;28;20587;-88
2022/11/14 05:22:32;;;;;;;0.80;0.80;;;5.50;99.90;6.40;100962.00;;;;5121512;27;20293;-88
2022/11/14 05:24:58;;;;;;;0.50;0.50;;;5.50;99.90;6.60;100970.00;;;;5085270;28;20176;-87
2022/11/14 05:27:28;;;;;;;0.90;0.90;;;5.60;99.90;6.50;100906.00;;;;5089386;28;20593;-87
2022/11/14 05:29:57;;;;;;;0.93;0.93;;;5.60;99.90;6.20;100932.00;;;;5097254;28;20188;-92
2022/11/14 05:32:22;;;;;;;0.70;0.70;;;5.50;99.90;6.00;100953.00;;;;5103703;27;20195;-83
2022/11/14 05:34:49;;;;;;;0.60;0.60;;;5.40;99.90;6.10;100960.00;;;;5101725;28;20412;-83
2022/11/14 05:37:17;;;;;;;1.23;1.23;;;5.50;99.90;6.00;100934.00;;;;5086579;27;20192;-83
2022/11/14 05:39:43;;;;;;;8.07;7.67;;;5.50;99.90;5.90;100921.00;;;;5089384;27;20251;-83
2022/11/14 05:42:15;;;;;;;0.60;0.60;;;5.50;99.90;5.80;100941.00;;;;5132916;27;20223;-83
2022/11/14 05:44:46;;;;;;;1.40;1.13;;;5.60;99.90;5.90;100956.00;;;;5112272;27;20180;-82
2022/11/14 05:47:12;;;;;;;0.93;0.93;;;5.60;99.90;5.90;100930.00;;;;5106460;28;20182;-82
2022/11/14 05:49:41;;;;;;;3.67;1.60;;;5.60;99.90;5.80;100921.00;;;;5094910;27;20193;-83
2022/11/14 05:52:07;;;;;;;1.00;1.00;;;5.60;99.90;5.90;100962.00;;;;5103879;28;20184;-83
2022/11/14 05:54:35;;;;;;;2.40;2.30;;;5.60;99.90;6.00;100942.00;;;;5107518;27;20670;-82
2022/11/14 05:57:04;;;;;;;0.53;0.53;;;5.60;99.90;5.90;100960.00;;;;5091278;27;20246;-82
2022/11/14 05:59:33;;;;;;;2.43;0.80;;;5.60;99.90;6.20;100971.00;;;;5098806;27;20207;-81
2022/11/14 06:02:02;;;;;;;0.57;0.57;;;5.70;99.90;6.20;100945.00;;;;5107584;27;20224;-84
2022/11/14 06:04:27;;;;;;;0.70;0.70;;;5.70;99.90;6.40;100968.00;;;;5086925;28;20226;-82
2022/11/14 06:06:56;;;;;;;0.50;0.50;;;5.80;99.90;6.20;100999.00;;;;5120426;27;20220;-81
2022/11/14 06:09:27;;;;;;;1.17;1.13;;;5.80;99.90;5.90;100952.00;;;;5098079;28;20199;-81
2022/11/14 06:11:57;;;;;;;0.60;0.60;;;5.70;99.90;6.40;100921.00;;;;5100276;28;20553;-86
2022/11/14 06:14:28;;;;;;;0.60;0.60;;;5.80;99.90;6.20;100945.00;;;;5078508;28;20631;-86
2022/11/14 06:16:54;;;;;;;1.13;1.13;;;5.80;99.90;6.10;100955.00;;;;5108814;28;20186;-83
2022/11/14 06:19:25;;;;;;;3.07;2.97;;;5.80;99.90;5.80;100943.00;;;;5095696;28;20183;-82
2022/11/14 06:21:54;;;;;;;1.40;1.37;;;5.70;99.90;6.00;100951.00;;;;5109100;28;20242;-86
2022/11/14 06:24:23;;;;;;;1.77;1.73;;;5.70;99.90;6.00;100940.00;;;;5095891;28;20312;-86
2022/11/14 06:26:49;;;;;;;0.90;0.90;;;5.70;99.90;6.00;100949.00;;;;5095043;28;20195;-89
2022/11/14 06:29:15;;;;;;;1.20;1.13;;;5.70;99.90;5.80;100961.00;;;;5098651;28;20592;-83
2022/11/14 06:31:44;;;;;;;3.87;3.60;;;5.60;99.90;5.90;100960.00;;;;5081752;28;20251;-83
2022/11/14 06:34:11;;;;;;;1.20;1.20;;;5.60;99.90;6.00;100968.00;;;;5115811;28;20532;-83
2022/11/14 06:36:37;;;;;;;0.40;0.40;;;5.70;99.90;5.50;100922.00;;;;5121701;28;20180;-86
2022/11/14 06:39:03;;;;;;;0.50;0.50;;;5.60;99.90;5.90;100974.00;;;;5111998;28;20235;-85
2022/11/14 06:41:32;;;;;;;0.80;0.80;;;5.60;99.90;6.20;100910.00;;;;5105130;28;20209;-85
2022/11/14 06:44:00;;;;;;;1.43;1.43;;;5.70;99.90;6.10;100985.00;;;;5099653;28;20213;-84
2022/11/14 06:46:26;;;;;;;0.70;0.70;;;5.70;99.90;6.10;100980.00;;;;5084612;28;20194;-85
2022/11/14 06:48:52;;;;;;;1.27;1.17;;;5.70;99.90;6.00;100978.00;;;;5104099;28;20173;-84
2022/11/14 06:51:21;;;;;;;1.60;1.23;;;5.70;99.90;6.10;100944.00;;;;5098752;28;20186;-83
2022/11/14 06:54:01;;;;;;;1.77;1.67;;;5.70;99.90;5.90;100960.00;;;;5119009;27;20241;-85
2022/11/14 06:56:27;;;;;;;0.70;0.70;;;5.70;99.90;6.10;100953.00;;;;5101360;27;20278;-85
2022/11/14 06:58:53;;;;;;;0.53;0.53;;;5.80;99.90;5.90;100992.00;;;;5110104;27;20676;-84
2022/11/14 07:01:22;;;;;;;0.40;0.40;;;5.70;99.90;6.10;100915.00;;;;5111024;27;20209;-85
2022/11/14 07:03:53;;;;;;;1.00;1.00;;;5.70;99.90;6.10;100952.00;;;;5105540;28;20172;-85
2022/11/14 07:06:25;;;;;;;0.70;0.70;;;5.80;99.90;6.30;100975.00;;;;5111286;27;20277;-85
2022/11/14 07:08:55;;;;;;;1.23;1.17;;;5.80;99.90;6.30;100928.00;;;;5118510;27;20666;-84
2022/11/14 07:11:26;;;;;;;0.90;0.90;;;5.80;99.90;6.30;100966.00;;;;5092199;27;20590;-84
2022/11/14 07:13:59;;;;;;;0.50;0.50;;;5.80;99.90;6.30;100966.00;;;;5108190;28;20195;-84
2022/11/14 07:16:32;;;;;;;0.50;0.50;;;5.80;99.90;6.00;100915.00;;;;5108353;28;20186;-85
2022/11/14 07:18:59;;;;;;;0.50;0.50;;;5.80;99.90;6.00;100910.00;;;;5107505;27;20638;-85
2022/11/14 07:21:31;;;;;;;0.63;0.63;;;5.70;99.90;6.20;100885.00;;;;5103693;27;20209;-83
2022/11/14 07:24:08;;;;;;;0.80;0.80;;;5.80;99.90;6.10;100959.00;;;;5103367;28;20230;-83
2022/11/14 07:26:42;;;;;;;0.60;0.60;;;5.80;99.90;6.40;100932.00;;;;5103302;28;20183;-82
2022/11/14 07:29:12;;;;;;;0.80;0.80;;;5.90;99.90;6.20;100939.00;;;;5088293;28;20644;-82
2022/11/14 07:31:44;;;;;;;1.43;1.43;;;5.90;99.90;6.20;100939.00;;;;5104290;27;20351;-82
2022/11/14 07:34:10;;;;;;;0.70;0.70;;;5.90;99.90;6.10;100909.00;;;;5100479;28;20532;-83
2022/11/14 07:36:40;;;;;;;2.53;2.33;;;5.80;99.90;6.40;100945.00;;;;5117426;27;20196;-81
2022/11/14 07:39:08;;;;;;;1.03;1.03;;;5.90;99.90;6.20;100933.00;;;;5098542;28;20192;-84
2022/11/14 07:41:35;;;;;;;0.73;0.73;;;6.00;99.90;6.30;100943.00;;;;5093141;28;20259;-84
2022/11/14 07:44:03;;;;;;;0.50;0.50;;;6.00;99.90;6.20;100942.00;;;;5090749;27;20188;-84
2022/11/14 07:46:35;;;;;;;1.17;1.17;;;6.00;99.90;6.40;100956.00;;;;5131456;27;20185;-82
2022/11/14 07:49:18;;;;;;;7.20;6.50;;;6.00;99.90;6.10;100917.00;;;;5106792;28;20258;-85
2022/11/14 07:51:46;;;;;;;0.90;0.90;;;6.00;99.90;6.20;100953.00;;;;5095298;28;20203;-76
2022/11/14 07:54:17;;;;;;;0.87;0.87;;;6.00;99.90;6.30;100951.00;;;;5120710;27;20538;-75
2022/11/14 07:56:43;;;;;;;2.63;2.43;;;6.00;99.90;6.30;100943.00;;;;5118218;27;20215;-76
2022/11/14 07:59:29;;;;;;;1.47;1.40;;;6.10;99.90;6.30;100951.00;;;;5098974;27;21067;-76
2022/11/14 08:02:23;;;;;;;2.03;1.87;;;6.20;99.90;6.40;100950.00;;;;5106301;27;20310;-75
2022/11/14 08:05:26;;;;;;;0.67;0.67;;;6.20;99.90;6.50;100954.00;;;;5108561;28;20327;-76
2022/11/14 08:07:58;;;;;;;0.93;0.93;;;6.30;99.90;6.60;100950.00;;;;5111189;27;20192;-75
2022/11/14 08:10:25;;;;;;;0.50;0.50;;;6.30;99.90;6.80;100939.00;;;;5112557;28;20262;-75
2022/11/14 08:13:04;;;;;;;2.70;2.60;;;6.50;99.90;6.70;100974.00;;;;5103563;27;20192;-75
2022/11/14 08:15:31;;;;;;;1.47;1.47;;;6.50;99.90;6.80;100951.00;;;;5124053;27;20193;-75
2022/11/14 08:18:05;;;;;;;1.53;1.43;;;6.50;99.90;7.10;100927.00;;;;5102289;28;20184;-75
2022/11/14 08:20:31;;;;;;;3.27;3.13;;;6.60;99.90;7.00;100926.00;;;;5116672;27;20292;-75
2022/11/14 08:23:06;;;;;;;1.17;1.17;;;6.80;99.90;7.10;100947.00;;;;5123908;27;20723;-75
2022/11/14 08:25:32;;;;;;;3.20;1.80;;;6.80;99.90;6.90;100942.00;;;;5129443;27;20259;-75
2022/11/14 08:27:58;;;;;;;4.37;4.00;;;6.70;99.90;6.70;100878.00;;;;5109520;27;20295;-75
2022/11/14 08:30:25;;;;;;;2.30;1.07;;;6.70;99.90;6.80;100923.00;;;;5119616;27;20336;-75
2022/11/14 08:32:51;;;;;;;0.70;0.70;;;6.70;99.90;6.70;100901.00;;;;5111441;27;20712;-75
2022/11/14 08:35:19;;;;;;;0.70;0.70;;;6.70;99.90;6.60;100927.00;;;;5098899;28;20298;-75
2022/11/14 08:37:45;;;;;;;0.40;0.40;;;6.60;99.90;7.00;100913.00;;;;5096858;27;20697;-75
2022/11/14 08:40:12;;;;;;;0.70;0.70;;;6.70;99.90;7.30;100882.00;;;;5110687;27;20332;-75
2022/11/14 08:42:43;;;;;;;1.23;1.23;;;6.90;99.90;7.20;100911.00;;;;5113231;27;20556;-72
2022/11/14 08:45:09;;;;;;;1.30;1.20;;;6.90;99.90;7.30;100867.00;;;;5109524;28;20180;-71
2022/11/14 08:47:58;;;;;;;0.67;0.67;;;7.10;99.90;7.40;100906.00;;;;5126824;27;20654;-71
2022/11/14 08:50:24;;;;;;;1.13;0.90;;;7.20;99.90;7.90;100900.00;;;;5121778;27;20256;-73
2022/11/14 08:53:11;;;;;;;0.40;0.40;;;7.40;99.90;8.10;100850.00;;;;5100837;27;20639;-73
2022/11/14 08:55:36;;;;;;;1.17;1.17;;;7.60;99.90;8.10;100903.00;;;;5085883;27;20291;-73
2022/11/14 08:58:29;;;;;;;0.57;0.57;;;7.70;99.90;7.90;100906.00;;;;5126002;27;20261;-73
2022/11/14 09:01:15;;;;;;;0.67;0.67;;;7.70;99.90;7.90;100906.00;;;;5086190;28;20246;-73
2022/11/14 09:04:01;;;;;;;0.53;0.53;;;7.70;99.90;8.30;100894.00;;;;5108238;27;20232;-73
2022/11/14 09:06:27;;;;;;;1.73;1.63;;;7.80;99.90;8.80;100893.00;;;;5104466;27;20317;-74
2022/11/14 09:08:54;;;;;;;1.33;1.33;;;8.20;99.90;8.80;100888.00;;;;5097231;28;20686;-74
2022/11/14 09:11:24;;;;;;;2.00;1.77;;;8.40;99.90;9.20;100904.00;;;;5091830;28;20202;-74
2022/11/14 09:13:53;;;;;;;1.07;1.03;;;8.70;99.90;9.70;100907.00;;;;5106148;28;20180;-73
2022/11/14 09:16:19;;;;;;;1.53;1.43;;;9.10;99.90;9.70;100910.00;;;;5101601;27;20544;-74
2022/11/14 09:18:45;;;;;;;0.70;0.70;;;9.10;99.90;9.10;100904.00;;;;5102754;27;20187;-73
2022/11/14 09:21:13;;;;;;;6.23;4.63;;;8.90;99.90;8.20;100896.00;;;;5117850;27;20261;-73
2022/11/14 09:23:42;;;;;;;3.40;1.57;;;8.60;99.90;8.20;100877.00;;;;5099210;28;20609;-73
2022/11/14 09:26:09;;;;;;;0.70;0.70;;;8.40;99.90;8.60;100875.00;;;;5092544;27;20181;-73
2022/11/14 09:28:40;;;;;;;2.63;2.10;;;8.40;99.90;8.60;100823.00;;;;5096881;27;20709;-73
2022/11/14 09:31:09;;;;;;;0.27;0.27;;;8.50;99.90;9.30;100891.00;;;;5106891;27;20184;-74
2022/11/14 09:33:36;;;;;;;1.37;1.20;;;8.70;99.90;8.60;100891.00;;;;5112360;27;20251;-74
2022/11/14 09:36:05;;;;;;;0.30;0.30;;;8.90;99.90;8.90;100866.00;;;;5100697;28;20329;-74
2022/11/14 09:38:32;;;;;;;1.47;0.67;;;8.80;99.90;9.00;100872.00;;;;5089255;28;20545;-74
2022/11/14 09:41:35;;;;;;;1.07;1.07;;;8.90;99.90;9.70;100879.00;;;;5108475;27;20195;-73
2022/11/14 09:44:10;;;;;;;1.17;1.07;;;9.30;99.90;10.00;100884.00;;;;5108279;27;20194;-72
2022/11/14 09:46:51;;;;;;;2.17;1.53;;;9.50;99.90;10.30;100883.00;;;;5117632;27;20548;-72
2022/11/14 09:49:34;;;;;;;0.90;0.90;;;9.90;99.90;10.10;100834.00;;;;5091309;28;20186;-71
2022/11/14 09:52:19;;;;;;;0.60;0.60;;;9.90;99.90;11.50;100892.00;;;;5096104;28;20658;-71
2022/11/14 09:55:03;;;;;;;7.73;5.50;;;10.40;99.90;11.90;100896.00;;;;5087959;27;20191;-72
2022/11/14 09:57:32;;;;;;;2.53;2.33;;;11.00;99.90;10.70;100898.00;;;;5115019;27;20194;-71
2022/11/14 10:00:52;;;;;;;0.83;0.83;;;10.70;99.90;10.30;100877.00;;;;5096001;27;20264;-72
2022/11/14 10:03:33;;;;;;;1.10;1.07;;;10.20;99.90;11.30;100880.00;;;;5088201;27;20581;-71
2022/11/14 10:06:28;;;;;;;0.70;0.70;;;10.60;99.90;11.20;100880.00;;;;5125918;27;20184;-73
2022/11/14 10:09:18;;;;;;;5.40;4.83;;;10.90;99.90;11.40;100839.00;;;;5096650;27;20203;-71
2022/11/14 10:11:54;;;;;;;0.30;0.30;;;10.80;99.90;11.50;100839.00;;;;5131303;27;20278;-71
2022/11/14 10:14:41;;;;;;;1.67;1.53;;;11.00;99.90;11.80;100894.00;;;;5094717;28;20194;-71
2022/11/14 10:17:40;;;;;;;0.30;0.30;;;11.30;99.90;11.80;100892.00;;;;5129388;27;20195;-71
2022/11/14 10:20:24;;;;;;;1.70;1.03;;;11.40;99.90;10.70;100879.00;;;;5125342;27;20948;-71
2022/11/14 10:33:43;;;;;;;1.40;1.40;;;10.30;99.90;10.70;100856.00;;;;5070214;28;20555;-72
2022/11/14 10:36:33;;;;;;;0.50;0.50;;;10.40;99.90;10.90;100810.00;;;;5043837;28;20642;-72
2022/11/14 10:39:40;;;;;;;0.85;0.85;;;10.60;99.90;11.30;100876.00;;;;5046491;28;20511;-71
2022/11/14 10:42:35;;;;;;;0.30;0.30;;;10.80;99.90;11.40;100893.00;;;;5047586;28;20749;-71
2022/11/14 10:45:18;;;;;;;0.77;0.77;;;11.10;99.90;11.30;100884.00;;;;5038426;28;20181;-71
2022/11/14 10:47:56;;;;;;;2.30;1.27;;;10.90;99.90;11.10;100883.00;;;;5047760;28;20184;-71
2022/11/14 10:50:55;;;;;;;0.67;0.67;;;10.80;99.90;10.90;100886.00;;;;5035361;28;20183;-72
2022/11/14 10:54:04;;;;;;;1.50;1.07;;;10.90;99.90;12.00;100879.00;;;;5042164;28;20197;-72
2022/11/14 10:56:30;;;;;;;2.43;1.97;;;11.10;99.90;11.70;100892.00;;;;5031215;28;20199;-72
2022/11/14 10:58:56;;;;;;;3.40;3.10;;;11.50;99.90;10.70;100865.00;;;;5048825;28;20231;-72
2022/11/14 11:01:55;;;;;;;3.13;2.80;;;10.90;99.90;10.90;100867.00;;;;5048418;28;20191;-72
2022/11/14 11:04:31;;;;;;;0.83;0.83;;;10.60;99.90;11.10;100867.00;;;;5047186;28;20254;-72
2022/11/14 11:13:14;;;;;;;28.37;6.43;;;11.20;99.90;12.40;100875.00;;;;5048183;28;20222;-72
2022/11/14 11:15:44;;;;;;;7.63;3.53;;;11.60;99.90;12.00;100879.00;;;;5048438;28;20323;-72
2022/11/14 11:18:34;;;;;;;0.97;0.97;;;11.70;99.90;12.00;100853.00;;;;5048118;28;20270;-72
2022/11/14 11:21:23;;;;;;;3.90;2.90;;;11.70;99.90;12.40;100869.00;;;;5031486;28;20186;-72
2022/11/14 11:23:59;;;;;;;0.83;0.83;;;11.70;99.90;12.30;100866.00;;;;5047851;28;20209;-72
2022/11/14 11:26:31;;;;;;;0.30;0.30;;;11.80;99.90;12.20;100884.00;;;;5037750;28;20191;-72
2022/11/14 11:29:24;;;;;;;2.53;2.20;;;11.80;99.90;12.00;100864.00;;;;5046762;28;20539;-73
2022/11/14 11:31:58;;;;;;;1.30;1.20;;;11.80;99.90;11.90;100871.00;;;;5062802;28;20217;-72
2022/11/14 11:34:32;;;;;;;0.40;0.40;;;11.60;99.90;12.90;100868.00;;;;5024850;28;20895;-72
2022/11/14 11:37:20;;;;;;;1.23;1.13;;;12.00;99.90;12.80;100810.00;;;;5042735;28;20187;-72
2022/11/14 11:39:58;;;;;;;3.10;2.50;;;12.00;99.90;12.30;100885.00;;;;5048303;28;20185;-72
2022/11/14 11:42:41;;;;;;;15.30;7.30;;;12.00;99.90;11.70;100863.00;;;;5041025;28;20197;-72
2022/11/14 11:45:18;;;;;;;1.23;1.13;;;11.70;99.90;11.90;100839.00;;;;5033999;28;20210;-72
2022/11/14 11:48:09;;;;;;;1.97;1.00;;;11.60;99.90;12.70;100863.00;;;;5017590;28;20177;-72
2022/11/14 11:50:35;;;;;;;0.30;0.30;;;11.90;99.90;12.70;100852.00;;;;5014300;28;20188;-72
2022/11/14 11:53:23;;;;;;;2.80;1.10;;;12.00;99.90;13.20;100880.00;;;;5048523;28;20696;-72
2022/11/14 11:55:55;;;;;;;1.20;1.20;;;12.30;99.90;14.00;100883.00;;;;5033941;28;20658;-72
2022/11/14 11:58:53;;;;;;;1.90;1.80;;;12.60;99.90;13.80;100894.00;;;;5034222;28;20215;-72